Time;durP1;ratioP1;P1;durP2;ratioP2;P2;SDS_P1;SDS_P2;PMS_P1;PMS_P2;Temp;Humidity;BMP_temperature;BMP_pressure;BME280_temperature;BME280_humidity;BME280_pressure;Samples;Min_cycle;Max_cycle;Signal;HPM_P1;HPM_P2
2023/08/17 06:10:35;;;;;;;;;7.50;7.50;;;;;;;;5082860;22;8851;-96
2023/08/17 06:13:00;;;;;;;;;7.33;7.33;;;;;;;;5055729;28;8833;-96
2023/08/17 06:15:26;;;;;;;;;8.33;8.33;;;;;;;;5026905;28;8947;-96
2023/08/17 06:17:51;;;;;;;;;5.33;5.33;;;;;;;;5053246;28;8835;-96
2023/08/17 06:20:16;;;;;;;;;5.67;5.67;;;;;;;;5046006;28;8856;-96
2023/08/17 06:22:42;;;;;;;;;5.00;5.00;;;;;;;;5033964;28;8832;-92
2023/08/17 06:25:08;;;;;;;;;5.33;5.33;;;;;;;;5045478;28;9704;-95
2023/08/17 06:30:08;;;;;;;;;4.00;4.00;;;;;;;;4950556;26;8850;-94
2023/08/17 06:32:34;;;;;;;;;6.00;6.00;;;;;;;;5004228;28;8823;-95
2023/08/17 06:34:59;;;;;;;;;6.67;5.00;;;;;;;;4989252;28;8869;-95
2023/08/17 06:37:26;;;;;;;;;6.33;6.33;;;;;;;;5011325;28;8839;-96
2023/08/17 06:39:51;;;;;;;;;4.50;4.50;;;;;;;;5011639;28;8782;-96
2023/08/17 06:42:16;;;;;;;;;8.00;7.33;;;;;;;;4994666;28;8847;-96
2023/08/17 06:44:41;;;;;;;;;4.67;4.67;;;;;;;;5010607;28;8808;-95
2023/08/17 06:47:07;;;;;;;;;8.00;8.00;;;;;;;;4992281;28;8962;-94
2023/08/17 06:49:32;;;;;;;;;6.00;5.00;;;;;;;;5007106;28;8803;-95
2023/08/17 06:51:57;;;;;;;;;5.33;5.33;;;;;;;;5006284;28;8835;-94
2023/08/17 06:54:22;;;;;;;;;5.00;5.00;;;;;;;;5005414;28;8811;-94
2023/08/17 06:56:48;;;;;;;;;3.67;3.67;;;;;;;;4991387;28;8857;-95
2023/08/17 06:59:13;;;;;;;;;5.67;5.67;;;;;;;;5015142;28;8819;-95
2023/08/17 07:01:38;;;;;;;;;5.00;5.00;;;;;;;;5008409;28;8836;-95
2023/08/17 07:04:04;;;;;;;;;3.67;3.67;;;;;;;;5014073;28;8800;-94
2023/08/17 07:06:29;;;;;;;;;4.33;4.33;;;;;;;;5011337;28;9719;-93
2023/08/17 07:08:54;;;;;;;;;4.67;4.67;;;;;;;;5016337;28;8914;-94
2023/08/17 07:11:19;;;;;;;;;5.00;4.67;;;;;;;;5003961;28;8848;-95
2023/08/17 07:13:45;;;;;;;;;4.00;4.00;;;;;;;;5013915;28;8856;-92
2023/08/17 07:16:10;;;;;;;;;4.67;4.67;;;;;;;;5024513;28;8821;-92
2023/08/17 07:18:35;;;;;;;;;7.00;7.00;;;;;;;;5006035;28;8818;-92
2023/08/17 07:21:00;;;;;;;;;7.67;7.67;;;;;;;;5020604;28;8918;-93
2023/08/17 07:23:26;;;;;;;;;4.67;4.67;;;;;;;;5015261;28;8844;-93
2023/08/17 07:25:51;;;;;;;;;5.00;5.00;;;;;;;;5015684;28;8937;-93
2023/08/17 07:28:16;;;;;;;;;5.00;5.00;;;;;;;;5019208;28;8836;-93
2023/08/17 07:30:41;;;;;;;;;6.00;6.00;;;;;;;;5001349;28;8843;-95
2023/08/17 07:33:16;;;;;;;;;7.67;6.33;;;;;;;;5003497;28;8830;-94
2023/08/17 07:35:41;;;;;;;;;5.75;5.75;;;;;;;;5020387;28;8788;-93
2023/08/17 07:38:06;;;;;;;;;7.00;7.00;;;;;;;;5019405;28;8931;-93
2023/08/17 07:40:31;;;;;;;;;4.00;4.00;;;;;;;;5018452;28;8819;-93
2023/08/17 07:42:57;;;;;;;;;5.00;5.00;;;;;;;;5018463;28;8816;-93
2023/08/17 07:45:22;;;;;;;;;8.33;8.33;;;;;;;;5019594;28;8811;-94
2023/08/17 07:47:47;;;;;;;;;6.33;6.33;;;;;;;;5019348;28;8858;-93
2023/08/17 07:50:12;;;;;;;;;5.00;5.00;;;;;;;;5018028;28;8874;-94
2023/08/17 07:52:38;;;;;;;;;5.00;5.00;;;;;;;;5016699;28;8842;-93
2023/08/17 07:55:03;;;;;;;;;7.33;7.33;;;;;;;;5019243;28;8845;-95
2023/08/17 07:57:28;;;;;;;;;3.00;3.00;;;;;;;;5019132;28;8937;-94
2023/08/17 07:59:53;;;;;;;;;4.00;4.00;;;;;;;;5018344;28;8820;-95
2023/08/17 08:02:19;;;;;;;;;5.33;5.33;;;;;;;;4999834;28;8811;-93
2023/08/17 08:04:53;;;;;;;;;6.33;6.33;;;;;;;;5029689;28;8830;-93
2023/08/17 08:07:20;;;;;;;;;3.75;3.75;;;;;;;;5029435;28;8794;-92
2023/08/17 08:09:50;;;;;;;;;4.00;4.00;;;;;;;;5024328;28;8801;-94
2023/08/17 08:12:32;;;;;;;;;4.50;4.50;;;;;;;;5022649;28;8955;-93
2023/08/17 08:14:57;;;;;;;;;6.75;6.75;;;;;;;;4995358;28;8824;-94
2023/08/17 08:17:32;;;;;;;;;;;;;;;;;;;;;
2023/08/17 08:20:08;;;;;;;;;3.75;3.75;;;;;;;;5017521;28;35970;-93
2023/08/17 08:25:49;;;;;;;;;5.25;5.25;;;;;;;;5015269;28;8799;-92
2023/08/17 08:28:14;;;;;;;;;4.50;4.50;;;;;;;;5034676;28;9710;-94
2023/08/17 08:31:20;;;;;;;;;5.00;4.00;;;;;;;;5022296;28;8804;-94
2023/08/17 08:33:52;;;;;;;;;5.75;4.50;;;;;;;;5018194;28;8811;-93
2023/08/17 08:36:20;;;;;;;;;6.75;6.25;;;;;;;;4999946;28;8845;-95
2023/08/17 08:38:50;;;;;;;;;3.00;3.00;;;;;;;;5017731;28;8807;-96
2023/08/17 08:41:21;;;;;;;;;5.00;5.00;;;;;;;;5017371;28;8804;-95
2023/08/17 08:43:50;;;;;;;;;6.00;6.00;;;;;;;;5013874;28;8804;-96
2023/08/17 08:46:17;;;;;;;;;3.50;3.50;;;;;;;;4996302;28;8829;-96
2023/08/17 08:48:54;;;;;;;;;;;;;;;;;;;;;
2023/08/17 08:51:43;;;;;;;;;3.00;3.00;;;;;;;;5017353;28;36347;-95
2023/08/17 08:54:15;;;;;;;;;3.50;3.50;;;;;;;;5001053;28;8789;-95
2023/08/17 08:56:55;;;;;;;;;;;;;;;;;;;;;
2023/08/17 08:59:30;;;;;;;;;4.25;4.25;;;;;;;;5025569;28;35358;-93
2023/08/17 09:04:46;;;;;;;;;4.00;4.00;;;;;;;;5014712;28;8787;-94
2023/08/17 09:07:17;;;;;;;;;6.00;6.00;;;;;;;;5004711;28;8780;-95
2023/08/17 09:09:53;;;;;;;;;8.75;8.75;;;;;;;;5029846;28;8906;-94
2023/08/17 09:12:47;;;;;;;;;5.00;5.00;;;;;;;;5013616;28;8809;-95
2023/08/17 09:15:11;;;;;;;;;4.25;4.25;;;;;;;;5013654;28;8943;-91
2023/08/17 09:18:01;;;;;;;;;4.00;4.00;;;;;;;;5000783;28;8928;-93
2023/08/17 09:21:11;;;;;;;;;7.25;7.25;;;;;;;;4989470;28;8819;-94
2023/08/17 09:23:42;;;;;;;;;5.50;5.50;;;;;;;;4974940;28;8805;-94
2023/08/17 09:26:12;;;;;;;;;4.75;4.75;;;;;;;;5013651;28;8889;-93
2023/08/17 09:28:40;;;;;;;;;8.25;8.25;;;;;;;;5015578;28;8788;-94
2023/08/17 09:31:06;;;;;;;;;7.00;7.00;;;;;;;;5008340;28;8808;-94
2023/08/17 09:33:31;;;;;;;;;7.00;7.00;;;;;;;;5014611;28;8864;-94
2023/08/17 09:35:57;;;;;;;;;4.33;4.33;;;;;;;;5005454;28;8833;-96
2023/08/17 09:38:23;;;;;;;;;4.00;4.00;;;;;;;;5011217;28;8808;-94
2023/08/17 09:40:48;;;;;;;;;5.00;5.00;;;;;;;;5006834;28;10064;-94
2023/08/17 09:43:14;;;;;;;;;7.33;7.33;;;;;;;;5014684;28;8815;-93
2023/08/17 09:45:40;;;;;;;;;7.00;7.00;;;;;;;;5015760;28;8850;-93
2023/08/17 09:48:08;;;;;;;;;9.67;9.67;;;;;;;;5015377;28;8824;-94
2023/08/17 09:50:33;;;;;;;;;4.75;4.75;;;;;;;;5013949;28;8788;-94
2023/08/17 09:52:59;;;;;;;;;5.67;5.67;;;;;;;;5014528;28;8836;-93
2023/08/17 09:55:24;;;;;;;;;9.67;9.67;;;;;;;;5014162;28;8807;-93
2023/08/17 09:57:51;;;;;;;;;7.00;7.00;;;;;;;;5016658;28;8843;-94
2023/08/17 10:00:16;;;;;;;;;7.00;7.00;;;;;;;;5014208;28;8877;-94
2023/08/17 10:02:43;;;;;;;;;8.67;8.67;;;;;;;;4998091;28;45694;-93
2023/08/17 10:05:11;;;;;;;;;6.33;6.33;;;;;;;;4982333;28;45397;-94
2023/08/17 10:07:38;;;;;;;;;7.00;7.00;;;;;;;;4981898;28;45326;-93
2023/08/17 10:10:04;;;;;;;;;6.00;5.67;;;;;;;;4980145;28;45683;-93
2023/08/17 10:12:32;;;;;;;;;6.67;6.67;;;;;;;;4978968;28;46535;-93
2023/08/17 10:15:03;;;;;;;;;6.67;6.67;;;;;;;;4981685;28;45482;-93
2023/08/17 10:17:33;;;;;;;;;7.00;5.67;;;;;;;;4981794;28;45542;-93
2023/08/17 10:19:58;;;;;;;;;8.00;8.00;;;;;;;;4981329;28;45451;-93
2023/08/17 10:22:44;;;;;;;;;6.00;6.00;;;;;;;;4977904;28;45214;-93
2023/08/17 10:25:11;;;;;;;;;8.00;7.67;;;;;;;;4963679;28;45472;-93
2023/08/17 10:27:37;;;;;;;;;5.33;5.33;;;;;;;;4981743;28;45154;-93
2023/08/17 10:30:02;;;;;;;;;7.67;7.67;;;;;;;;4980804;28;45948;-93
2023/08/17 10:32:27;;;;;;;;;8.00;8.00;;;;;;;;4978786;28;46373;-93
2023/08/17 10:34:53;;;;;;;;;10.00;10.00;;;;;;;;4959400;28;45459;-93
2023/08/17 10:37:19;;;;;;;;;3.67;3.67;;;;;;;;4980593;28;45561;-93
2023/08/17 10:39:45;;;;;;;;;6.00;6.00;;;;;;;;4981885;28;45548;-93
2023/08/17 10:42:10;;;;;;;;;11.67;11.67;;;;;;;;4979925;28;45423;-93
2023/08/17 10:44:48;;;;;;;;;10.67;10.67;;;;;;;;4978592;28;45494;-94
2023/08/17 10:47:31;;;;;;;;;9.00;8.67;;;;;;;;4978988;28;45323;-96
2023/08/17 10:50:07;;;;;;;;;9.67;9.67;;;;;;;;4974243;28;44881;-95
2023/08/17 10:52:37;;;;;;;;;9.00;9.00;;;;;;;;4977912;28;45725;-96
2023/08/17 10:55:05;;;;;;;;;9.67;9.67;;;;;;;;4972492;28;47339;-94
2023/08/17 10:57:35;;;;;;;;;7.67;7.67;;;;;;;;4973517;28;45277;-94
2023/08/17 11:00:13;;;;;;;;;11.67;10.67;;;;;;;;4977563;28;46007;-94
2023/08/17 11:02:39;;;;;;;;;9.67;8.67;;;;;;;;4960165;28;47667;-95
2023/08/17 11:05:05;;;;;;;;;7.00;7.00;;;;;;;;4977404;28;45435;-95
2023/08/17 11:07:44;;;;;;;;;8.67;8.67;;;;;;;;4979142;28;45427;-96
2023/08/17 11:10:28;;;;;;;;;11.00;10.67;;;;;;;;4978360;28;45249;-94
2023/08/17 11:12:59;;;;;;;;;12.67;12.67;;;;;;;;4970668;28;45505;-94
2023/08/17 11:15:24;;;;;;;;;8.67;8.67;;;;;;;;4977349;28;45477;-94
2023/08/17 11:17:50;;;;;;;;;13.00;13.00;;;;;;;;4978486;28;45515;-96
2023/08/17 11:20:15;;;;;;;;;8.00;8.00;;;;;;;;4962485;28;45442;-95
2023/08/17 11:22:40;;;;;;;;;6.67;6.67;;;;;;;;4980556;28;45479;-95
2023/08/17 11:25:06;;;;;;;;;5.33;5.33;;;;;;;;4980297;28;45301;-95
2023/08/17 11:27:33;;;;;;;;;12.33;12.33;;;;;;;;4994202;28;45328;-95
2023/08/17 11:29:58;;;;;;;;;7.67;7.67;;;;;;;;4975708;28;45245;-95
2023/08/17 11:32:24;;;;;;;;;8.00;8.00;;;;;;;;4961298;28;47207;-95
2023/08/17 11:34:49;;;;;;;;;10.33;9.33;;;;;;;;4979306;28;45143;-95
2023/08/17 11:37:15;;;;;;;;;9.33;9.33;;;;;;;;4963188;28;45426;-96
2023/08/17 11:39:41;;;;;;;;;9.00;9.00;;;;;;;;4982300;28;45396;-92
2023/08/17 11:42:06;;;;;;;;;7.33;7.33;;;;;;;;4970417;28;47128;-95
2023/08/17 11:44:32;;;;;;;;;8.00;8.00;;;;;;;;4980947;28;46694;-96
2023/08/17 11:46:57;;;;;;;;;10.00;10.00;;;;;;;;4954749;28;45399;-96
2023/08/17 11:49:23;;;;;;;;;5.00;5.00;;;;;;;;4981957;28;45185;-96
2023/08/17 11:51:49;;;;;;;;;4.00;4.00;;;;;;;;4981153;28;45579;-96
2023/08/17 11:54:14;;;;;;;;;7.33;7.33;;;;;;;;4981464;28;45711;-96
2023/08/17 11:56:41;;;;;;;;;5.00;5.00;;;;;;;;4994775;28;45430;-96
2023/08/17 11:59:13;;;;;;;;;6.00;6.00;;;;;;;;4976252;28;45357;-96
2023/08/17 12:01:39;;;;;;;;;7.33;7.33;;;;;;;;4987924;28;45933;-96
2023/08/17 12:04:05;;;;;;;;;8.33;8.33;;;;;;;;4970304;28;45368;-96
2023/08/17 12:06:30;;;;;;;;;7.00;6.00;;;;;;;;5001977;28;45257;-96
2023/08/17 12:08:56;;;;;;;;;7.67;7.67;;;;;;;;5015761;28;8871;-96
2023/08/17 12:11:23;;;;;;;;;5.00;5.00;;;;;;;;4998125;28;8847;-96
2023/08/17 12:13:50;;;;;;;;;4.75;4.75;;;;;;;;5018245;28;8792;-96
2023/08/17 12:16:16;;;;;;;;;7.25;7.25;;;;;;;;5019143;28;9797;-96
2023/08/17 12:18:44;;;;;;;;;12.75;12.75;;;;;;;;5001060;28;8804;-96
2023/08/17 12:21:09;;;;;;;;;8.00;8.00;;;;;;;;5000986;28;8740;-96
2023/08/17 12:23:34;;;;;;;;;7.00;7.00;;;;;;;;4999137;28;27917;-96
2023/08/17 12:25:59;;;;;;;;;12.00;12.00;;;;;;;;4971223;28;45426;-96
2023/08/17 12:28:25;;;;;;;;;12.67;12.67;;;;;;;;4984316;28;45581;-96
2023/08/17 12:31:02;;;;;;;;;9.67;9.67;;;;;;;;4984309;28;46155;-96
2023/08/17 12:33:27;;;;;;;;;8.33;8.33;;;;;;;;4984363;28;45332;-96
2023/08/17 12:35:53;;;;;;;;;11.67;11.67;;;;;;;;4984321;28;45428;-96
2023/08/17 12:38:18;;;;;;;;;14.00;14.00;;;;;;;;4984349;28;45254;-96
2023/08/17 12:40:44;;;;;;;;;9.33;9.33;;;;;;;;4984085;28;46425;-96
2023/08/17 12:43:09;;;;;;;;;10.00;10.00;;;;;;;;4966471;28;45711;-96
2023/08/17 12:45:34;;;;;;;;;10.00;10.00;;;;;;;;4984458;28;45326;-95
2023/08/17 12:47:59;;;;;;;;;9.67;8.67;;;;;;;;4984346;28;45689;-96
2023/08/17 12:50:25;;;;;;;;;7.67;7.67;;;;;;;;4983801;28;45244;-96
2023/08/17 12:52:50;;;;;;;;;10.00;10.00;;;;;;;;4984042;28;45210;-96
2023/08/17 12:55:15;;;;;;;;;9.67;9.67;;;;;;;;4984241;28;45212;-95
2023/08/17 12:57:40;;;;;;;;;7.00;7.00;;;;;;;;4984037;28;45428;-96
2023/08/17 13:00:06;;;;;;;;;14.67;14.67;;;;;;;;4983980;28;46279;-96
2023/08/17 13:02:31;;;;;;;;;13.33;13.33;;;;;;;;4983875;28;45348;-96
2023/08/17 13:04:57;;;;;;;;;12.00;10.67;;;;;;;;4966145;28;45277;-95
2023/08/17 13:07:22;;;;;;;;;9.33;9.33;;;;;;;;4966449;28;45581;-96
2023/08/17 13:09:47;;;;;;;;;10.33;10.33;;;;;;;;4983731;28;46345;-95
2023/08/17 13:12:13;;;;;;;;;8.00;8.00;;;;;;;;4971229;28;45382;-96
2023/08/17 13:14:38;;;;;;;;;14.00;14.00;;;;;;;;4991927;28;45352;-96
2023/08/17 13:17:03;;;;;;;;;10.33;10.33;;;;;;;;4966068;28;45420;-96
2023/08/17 13:19:29;;;;;;;;;7.33;7.33;;;;;;;;4965957;28;47071;-95
2023/08/17 13:21:54;;;;;;;;;8.67;8.67;;;;;;;;4965539;28;45432;-96
2023/08/17 13:24:19;;;;;;;;;11.67;11.67;;;;;;;;4964999;28;45455;-96
2023/08/17 13:26:44;;;;;;;;;11.67;10.33;;;;;;;;4983760;28;45408;-96
2023/08/17 13:29:10;;;;;;;;;13.00;12.67;;;;;;;;4965643;28;47317;-96
2023/08/17 13:31:35;;;;;;;;;7.67;7.67;;;;;;;;4965826;28;46507;-96
2023/08/17 13:34:00;;;;;;;;;9.00;9.00;;;;;;;;4966046;28;45519;-96
2023/08/17 13:36:25;;;;;;;;;10.00;10.00;;;;;;;;4965630;28;45370;-96
2023/08/17 13:38:51;;;;;;;;;8.33;8.33;;;;;;;;4983340;28;45960;-96
2023/08/17 13:41:16;;;;;;;;;14.67;14.67;;;;;;;;4965455;28;45830;-96
2023/08/17 13:43:41;;;;;;;;;12.33;12.33;;;;;;;;4983573;28;46725;-96
2023/08/17 13:46:06;;;;;;;;;9.00;9.00;;;;;;;;4983597;28;45376;-96
2023/08/17 13:48:32;;;;;;;;;10.00;10.00;;;;;;;;4965538;28;46975;-96
2023/08/17 13:50:59;;;;;;;;;9.67;9.67;;;;;;;;4995947;28;45398;-96
2023/08/17 13:53:25;;;;;;;;;9.00;9.00;;;;;;;;4965765;28;45415;-96
2023/08/17 13:55:50;;;;;;;;;9.67;9.67;;;;;;;;4968534;28;45310;-96
2023/08/17 13:58:15;;;;;;;;;8.33;8.33;;;;;;;;4987837;28;46157;-95
2023/08/17 14:00:41;;;;;;;;;10.00;10.00;;;;;;;;4983128;28;45278;-96
2023/08/17 14:03:06;;;;;;;;;11.00;11.00;;;;;;;;4983338;28;45156;-96
2023/08/17 14:05:31;;;;;;;;;9.33;9.33;;;;;;;;4965341;28;45560;-96
2023/08/17 14:07:57;;;;;;;;;8.33;8.33;;;;;;;;4983073;28;46136;-96
2023/08/17 14:10:22;;;;;;;;;9.33;9.00;;;;;;;;4965102;28;45183;-96
2023/08/17 14:12:47;;;;;;;;;9.67;9.67;;;;;;;;4983255;28;45700;-96
2023/08/17 14:15:13;;;;;;;;;10.67;10.67;;;;;;;;4983126;28;45498;-96
2023/08/17 14:17:39;;;;;;;;;12.33;11.67;;;;;;;;4982801;28;45509;-96
2023/08/17 14:20:04;;;;;;;;;8.67;8.67;;;;;;;;4964757;28;45342;-96
2023/08/17 14:22:30;;;;;;;;;10.33;10.33;;;;;;;;4982989;28;45402;-96
2023/08/17 14:24:55;;;;;;;;;14.33;14.33;;;;;;;;4995960;28;45400;-96
2023/08/17 14:27:20;;;;;;;;;12.67;12.67;;;;;;;;4965124;28;48033;-96
2023/08/17 14:29:46;;;;;;;;;11.33;11.33;;;;;;;;4982474;28;45365;-96
2023/08/17 14:32:11;;;;;;;;;19.67;19.67;;;;;;;;4965204;28;45525;-96
2023/08/17 14:34:36;;;;;;;;;13.00;13.00;;;;;;;;4982838;28;45469;-96
2023/08/17 14:37:01;;;;;;;;;15.67;15.67;;;;;;;;4981803;28;46459;-96
2023/08/17 14:39:27;;;;;;;;;13.33;13.33;;;;;;;;4981992;28;45320;-96
2023/08/17 14:41:52;;;;;;;;;14.33;14.33;;;;;;;;4964947;28;45415;-96
2023/08/17 14:44:18;;;;;;;;;15.33;15.33;;;;;;;;4965045;28;45398;-96
2023/08/17 14:46:43;;;;;;;;;10.67;10.67;;;;;;;;4990822;28;46105;-95
2023/08/17 14:49:08;;;;;;;;;13.33;13.33;;;;;;;;4987251;28;45241;-96
2023/08/17 14:51:40;;;;;;;;;14.00;14.00;;;;;;;;4982264;28;45381;-96
2023/08/17 14:54:06;;;;;;;;;11.33;11.33;;;;;;;;4982576;28;45341;-95
2023/08/17 14:56:31;;;;;;;;;9.67;9.67;;;;;;;;4982025;28;45544;-95
2023/08/17 14:58:56;;;;;;;;;11.67;11.67;;;;;;;;4982193;28;45551;-95
2023/08/17 15:01:22;;;;;;;;;11.33;11.33;;;;;;;;4982509;28;45507;-96
2023/08/17 15:03:47;;;;;;;;;11.00;11.00;;;;;;;;4982348;28;45325;-96
2023/08/17 15:06:12;;;;;;;;;9.00;9.00;;;;;;;;4981822;28;45450;-96
2023/08/17 15:08:37;;;;;;;;;12.67;12.67;;;;;;;;4966519;28;45411;-96
2023/08/17 15:11:03;;;;;;;;;15.67;15.67;;;;;;;;4975464;28;45456;-96
2023/08/17 15:13:28;;;;;;;;;15.33;15.33;;;;;;;;4982449;28;45226;-96
2023/08/17 15:15:55;;;;;;;;;13.67;13.67;;;;;;;;4964585;28;45363;-95
2023/08/17 15:18:20;;;;;;;;;11.33;10.67;;;;;;;;4964233;28;45231;-95
2023/08/17 15:20:45;;;;;;;;;18.00;18.00;;;;;;;;4981794;28;45328;-96
2023/08/17 15:23:10;;;;;;;;;19.67;19.67;;;;;;;;4995365;28;45250;-96
2023/08/17 15:25:36;;;;;;;;;12.33;12.33;;;;;;;;4981960;28;45397;-96
2023/08/17 15:28:01;;;;;;;;;12.00;12.00;;;;;;;;4981544;28;45163;-96
2023/08/17 15:30:26;;;;;;;;;13.00;13.00;;;;;;;;4964479;28;45558;-96
2023/08/17 15:32:52;;;;;;;;;15.00;15.00;;;;;;;;4995356;28;45478;-96
2023/08/17 15:35:20;;;;;;;;;17.33;17.33;;;;;;;;4988951;28;45327;-96
2023/08/17 15:37:45;;;;;;;;;13.00;13.00;;;;;;;;4986985;28;45479;-96
2023/08/17 15:40:11;;;;;;;;;16.67;16.67;;;;;;;;4964166;28;45465;-96
2023/08/17 15:42:37;;;;;;;;;13.00;13.00;;;;;;;;4981826;28;45550;-96
2023/08/17 15:45:02;;;;;;;;;15.00;15.00;;;;;;;;4981813;28;45471;-95
2023/08/17 15:47:30;;;;;;;;;17.00;17.00;;;;;;;;4982285;28;45368;-96
2023/08/17 15:49:55;;;;;;;;;15.67;15.67;;;;;;;;4966852;28;45417;-96
2023/08/17 15:52:21;;;;;;;;;16.67;16.67;;;;;;;;4985157;28;45287;-96
2023/08/17 15:54:46;;;;;;;;;16.67;16.67;;;;;;;;4985010;28;45500;-95
2023/08/17 15:57:11;;;;;;;;;12.67;12.67;;;;;;;;4984709;28;45259;-95
2023/08/17 15:59:38;;;;;;;;;21.00;21.00;;;;;;;;4985220;28;45391;-95
2023/08/17 16:02:03;;;;;;;;;19.00;19.00;;;;;;;;4985036;28;45391;-96
2023/08/17 16:04:29;;;;;;;;;13.67;13.67;;;;;;;;4967482;28;46669;-96
2023/08/17 16:06:54;;;;;;;;;15.00;15.00;;;;;;;;4984516;28;45677;-96
2023/08/17 16:09:22;;;;;;;;;24.00;24.00;;;;;;;;4985073;28;45356;-96
2023/08/17 16:11:48;;;;;;;;;15.33;15.33;;;;;;;;4984937;28;45529;-96
2023/08/17 16:14:13;;;;;;;;;14.00;14.00;;;;;;;;4984874;28;46279;-96
2023/08/17 16:16:38;;;;;;;;;15.00;15.00;;;;;;;;4983294;28;45432;-96
2023/08/17 16:19:03;;;;;;;;;16.00;16.00;;;;;;;;5173170;22;44964;-95
2023/08/17 16:21:29;;;;;;;;;15.00;15.00;;;;;;;;5008311;28;45571;-96
2023/08/17 16:23:54;;;;;;;;;18.67;18.67;;;;;;;;5020729;28;45502;-96
2023/08/17 16:26:19;;;;;;;;;12.67;12.67;;;;;;;;5023906;28;45412;-96
2023/08/17 16:28:44;;;;;;;;;12.33;12.33;;;;;;;;5004222;28;45426;-96
2023/08/17 16:31:12;;;;;;;;;13.00;13.00;;;;;;;;5023976;28;45684;-96
2023/08/17 16:33:40;;;;;;;;;16.00;16.00;;;;;;;;4996630;28;46910;-95
2023/08/17 16:36:05;;;;;;;;;12.67;12.67;;;;;;;;5022672;28;45326;-92
2023/08/17 16:38:30;;;;;;;;;15.00;15.00;;;;;;;;4998714;28;45615;-93
2023/08/17 16:40:58;;;;;;;;;10.33;10.33;;;;;;;;5004522;28;45503;-94
2023/08/17 16:43:26;;;;;;;;;11.67;11.67;;;;;;;;5023447;28;45514;-94
2023/08/17 16:45:52;;;;;;;;;11.00;11.00;;;;;;;;5014786;28;45185;-93
2023/08/17 16:48:17;;;;;;;;;9.00;9.00;;;;;;;;4988398;28;45212;-92
2023/08/17 16:50:42;;;;;;;;;8.33;8.33;;;;;;;;4996010;28;45626;-91
2023/08/17 16:53:08;;;;;;;;;8.33;8.33;;;;;;;;5004366;28;47542;-95
2023/08/17 16:55:36;;;;;;;;;8.67;8.67;;;;;;;;5022369;28;45260;-94
2023/08/17 16:58:01;;;;;;;;;8.00;8.00;;;;;;;;5016786;28;45431;-94
2023/08/17 17:00:27;;;;;;;;;9.33;9.33;;;;;;;;5021499;28;45522;-95
2023/08/17 17:02:54;;;;;;;;;7.00;7.00;;;;;;;;5003049;28;46855;-95
2023/08/17 17:05:20;;;;;;;;;8.33;8.33;;;;;;;;5002675;28;45849;-94
2023/08/17 17:07:47;;;;;;;;;9.33;9.33;;;;;;;;5012545;28;45715;-94
2023/08/17 17:10:12;;;;;;;;;7.67;7.67;;;;;;;;5016967;28;45399;-94
2023/08/17 17:12:39;;;;;;;;;9.00;9.00;;;;;;;;5020935;28;47170;-94
2023/08/17 17:15:05;;;;;;;;;9.00;9.00;;;;;;;;5002443;28;45463;-94
2023/08/17 17:17:33;;;;;;;;;9.00;9.00;;;;;;;;4989905;28;45394;-94
2023/08/17 17:20:00;;;;;;;;;12.33;12.33;;;;;;;;5000890;28;45592;-95
2023/08/17 17:22:41;;;;;;;;;12.33;11.33;;;;;;;;5014080;28;45644;-96
2023/08/17 17:25:12;;;;;;;;;12.67;12.67;;;;;;;;4996830;28;45414;-94
2023/08/17 17:27:38;;;;;;;;;16.67;16.67;;;;;;;;4988322;28;45479;-96
2023/08/17 17:30:08;;;;;;;;;12.33;12.33;;;;;;;;4996329;28;45461;-94
2023/08/17 17:32:33;;;;;;;;;13.00;13.00;;;;;;;;4996358;28;47740;-94
2023/08/17 17:34:59;;;;;;;;;12.67;12.67;;;;;;;;5022953;28;45395;-95
2023/08/17 17:37:24;;;;;;;;;14.33;14.33;;;;;;;;5002654;28;45504;-96
2023/08/17 17:40:08;;;;;;;;;10.00;10.00;;;;;;;;5001260;28;45629;-96
2023/08/17 17:42:42;;;;;;;;;11.67;11.67;;;;;;;;5000633;28;47222;-95
2023/08/17 17:45:07;;;;;;;;;13.33;12.67;;;;;;;;5020453;28;45464;-96
2023/08/17 17:47:35;;;;;;;;;16.00;16.00;;;;;;;;5007014;28;46077;-95
2023/08/17 17:50:01;;;;;;;;;12.00;12.00;;;;;;;;5018598;28;45561;-95
2023/08/17 17:52:28;;;;;;;;;13.33;13.33;;;;;;;;4996563;28;46504;-95
2023/08/17 17:54:53;;;;;;;;;11.33;11.33;;;;;;;;5032562;22;45320;-95
2023/08/17 17:57:21;;;;;;;;;11.33;11.33;;;;;;;;4998937;28;45440;-95
2023/08/17 17:59:48;;;;;;;;;12.00;12.00;;;;;;;;5015731;28;46860;-96
2023/08/17 18:02:14;;;;;;;;;11.00;11.00;;;;;;;;5021062;28;45430;-92
2023/08/17 18:04:39;;;;;;;;;11.33;11.33;;;;;;;;5000523;28;45436;-95
2023/08/17 18:07:04;;;;;;;;;9.33;9.33;;;;;;;;5002531;28;45431;-96
2023/08/17 18:09:30;;;;;;;;;10.00;10.00;;;;;;;;5004484;28;45351;-95
2023/08/17 18:11:56;;;;;;;;;10.67;10.67;;;;;;;;5015319;28;45408;-96
2023/08/17 18:14:42;;;;;;;;;12.00;12.00;;;;;;;;5002311;28;46600;-96
2023/08/17 18:17:21;;;;;;;;;10.67;10.67;;;;;;;;5007512;28;45341;-96
2023/08/17 18:19:47;;;;;;;;;11.33;11.33;;;;;;;;4993815;28;45488;-96
2023/08/17 18:22:18;;;;;;;;;11.00;11.00;;;;;;;;5003311;28;47778;-96
2023/08/17 18:24:51;;;;;;;;;7.67;7.67;;;;;;;;4999829;28;45416;-96
2023/08/17 18:27:16;;;;;;;;;9.67;9.67;;;;;;;;5002999;28;45210;-96
2023/08/17 18:29:42;;;;;;;;;10.67;10.67;;;;;;;;5019762;28;45356;-96
2023/08/17 18:32:09;;;;;;;;;10.33;10.33;;;;;;;;5011158;28;45650;-96
2023/08/17 18:34:34;;;;;;;;;10.67;10.67;;;;;;;;5016958;28;45432;-96
2023/08/17 18:37:00;;;;;;;;;11.00;11.00;;;;;;;;4998730;28;45497;-96
2023/08/17 18:39:28;;;;;;;;;11.67;11.67;;;;;;;;4994688;28;45601;-96
2023/08/17 18:41:53;;;;;;;;;11.33;11.33;;;;;;;;5020015;28;45352;-96
2023/08/17 18:44:18;;;;;;;;;11.00;11.00;;;;;;;;5019480;28;45395;-96
2023/08/17 18:46:44;;;;;;;;;9.33;9.33;;;;;;;;5022040;28;45411;-96
2023/08/17 18:49:09;;;;;;;;;12.00;12.00;;;;;;;;5003494;28;45494;-96
2023/08/17 18:51:37;;;;;;;;;11.33;11.33;;;;;;;;4996270;28;47989;-96
2023/08/17 18:54:02;;;;;;;;;11.33;11.33;;;;;;;;5011881;28;45464;-96
2023/08/17 18:56:27;;;;;;;;;11.33;11.33;;;;;;;;5017582;28;45218;-96
2023/08/17 18:58:54;;;;;;;;;14.00;14.00;;;;;;;;5003186;28;45600;-96
2023/08/17 19:01:19;;;;;;;;;11.67;11.67;;;;;;;;5001957;28;47534;-96
2023/08/17 19:03:45;;;;;;;;;10.33;10.33;;;;;;;;5019200;28;45971;-96
2023/08/17 19:06:10;;;;;;;;;11.67;11.67;;;;;;;;5002845;28;45419;-96
2023/08/17 19:15:38;;;;;;;;;;;;;;;;;;;;;
